Time;durP1;ratioP1;P1;durP2;ratioP2;P2;SDS_P1;SDS_P2;PMS_P1;PMS_P2;Temp;Humidity;BMP_temperature;BMP_pressure;BME280_temperature;BME280_humidity;BME280_pressure;Samples;Min_cycle;Max_cycle;Signal;HPM_P1;HPM_P2
2023/11/11 00:02:09;;;;;;;5.05;1.90;;;;;;;4.55;100.00;99543.97;5053618;28;20063;-85
2023/11/11 00:04:34;;;;;;;5.60;1.98;;;;;;;4.53;100.00;99545.78;5053892;28;20099;-85
2023/11/11 00:07:00;;;;;;;3.65;1.80;;;;;;;4.67;100.00;99553.63;5052802;28;20483;-85
2023/11/11 00:09:25;;;;;;;2.83;1.35;;;;;;;4.63;100.00;99557.25;5053803;28;20035;-85
2023/11/11 00:11:51;;;;;;;2.55;1.40;;;;;;;4.70;100.00;99560.31;5053813;28;20021;-85
2023/11/11 00:14:16;;;;;;;1.85;1.33;;;;;;;4.72;100.00;99554.22;5053343;28;20044;-85
2023/11/11 00:16:42;;;;;;;3.25;1.50;;;;;;;4.76;100.00;99551.56;5053618;28;20147;-85
2023/11/11 00:19:09;;;;;;;4.18;1.95;;;;;;;4.79;100.00;99551.41;5053559;28;20048;-85
2023/11/11 00:21:37;;;;;;;5.55;1.73;;;;;;;4.80;100.00;99553.84;5052402;28;20072;-85
2023/11/11 00:24:05;;;;;;;4.70;1.98;;;;;;;4.82;100.00;99551.25;5053578;28;20384;-85
2023/11/11 00:26:30;;;;;;;3.95;1.75;;;;;;;4.88;100.00;99546.66;5053209;28;20036;-85
2023/11/11 00:28:56;;;;;;;5.82;1.88;;;;;;;4.85;100.00;99545.97;5053298;28;20406;-85
2023/11/11 00:31:21;;;;;;;5.72;1.88;;;;;;;4.85;100.00;99541.72;5052254;28;20039;-85
2023/11/11 00:33:46;;;;;;;5.25;2.67;;;;;;;4.84;100.00;99539.22;5053223;28;20108;-85
2023/11/11 00:36:12;;;;;;;4.72;1.90;;;;;;;4.86;100.00;99537.41;5053254;28;20025;-85
2023/11/11 00:38:38;;;;;;;10.45;1.90;;;;;;;4.89;100.00;99534.69;5053156;28;20032;-85
2023/11/11 00:41:03;;;;;;;5.72;1.77;;;;;;;4.93;100.00;99539.59;5052839;28;20040;-85
2023/11/11 00:43:30;;;;;;;3.92;1.75;;;;;;;4.92;100.00;99537.09;5052946;28;20025;-85
2023/11/11 00:45:55;;;;;;;4.05;2.38;;;;;;;4.95;100.00;99542.09;5052038;28;20029;-85
2023/11/11 00:48:21;;;;;;;2.47;1.33;;;;;;;4.96;100.00;99543.72;5053187;28;20471;-85
2023/11/11 00:50:47;;;;;;;6.15;1.73;;;;;;;4.93;100.00;99543.91;5034717;28;20379;-85
2023/11/11 00:53:13;;;;;;;3.90;1.40;;;;;;;4.99;100.00;99548.69;5034991;28;20025;-85
2023/11/11 00:55:38;;;;;;;4.25;1.35;;;;;;;5.00;100.00;99549.50;5052791;28;20037;-85
2023/11/11 00:58:03;;;;;;;4.35;1.58;;;;;;;5.04;100.00;99556.16;5052631;28;20040;-85
2023/11/11 01:00:29;;;;;;;2.17;1.15;;;;;;;5.07;100.00;99550.88;5051007;28;20029;-85
2023/11/11 01:02:56;;;;;;;4.65;1.60;;;;;;;5.07;100.00;99556.84;5052603;28;20074;-85
2023/11/11 01:05:23;;;;;;;5.70;1.90;;;;;;;5.13;100.00;99564.19;5052648;28;20375;-85
2023/11/11 01:07:49;;;;;;;3.85;1.65;;;;;;;5.12;100.00;99560.00;5034732;28;20021;-85
2023/11/11 01:10:14;;;;;;;3.88;1.40;;;;;;;5.15;100.00;99564.94;5052643;28;20037;-85
2023/11/11 01:12:39;;;;;;;6.78;2.10;;;;;;;5.16;100.00;99555.53;5052299;28;20042;-85
2023/11/11 01:15:08;;;;;;;7.15;1.67;;;;;;;5.13;100.00;99561.63;5051330;28;20434;-85
2023/11/11 01:17:35;;;;;;;11.35;4.10;;;;;;;5.10;100.00;99564.34;5052526;28;20040;-86
2023/11/11 01:20:01;;;;;;;3.72;1.50;;;;;;;5.23;100.00;99562.00;5052596;28;20116;-85
2023/11/11 01:22:26;;;;;;;3.72;1.70;;;;;;;5.09;100.00;99565.25;5052295;28;20104;-85
2023/11/11 01:24:51;;;;;;;5.50;1.50;;;;;;;5.08;100.00;99568.72;5052268;28;20025;-85
2023/11/11 01:27:17;;;;;;;4.65;1.40;;;;;;;5.02;100.00;99558.75;5052152;28;20533;-85
2023/11/11 01:29:43;;;;;;;4.38;1.70;;;;;;;4.97;100.00;99565.84;5051097;28;20033;-85
2023/11/11 01:32:08;;;;;;;2.97;1.20;;;;;;;5.05;100.00;99568.88;5052144;28;20057;-86
2023/11/11 01:34:34;;;;;;;7.07;1.80;;;;;;;4.90;100.00;99570.44;5052018;28;20484;-85
2023/11/11 01:37:04;;;;;;;8.38;2.22;;;;;;;4.87;100.00;99574.84;5051942;28;20082;-85
2023/11/11 01:39:31;;;;;;;3.60;1.55;;;;;;;4.81;100.00;99575.16;5052501;28;20045;-85
2023/11/11 01:41:56;;;;;;;9.25;2.10;;;;;;;5.11;100.00;99568.56;5051770;28;20063;-85
2023/11/11 01:44:23;;;;;;;5.97;1.30;;;;;;;5.06;100.00;99569.69;5050860;28;20053;-85
2023/11/11 01:46:49;;;;;;;7.28;1.05;;;;;;;4.88;100.00;99566.31;5051951;28;20120;-85
2023/11/11 01:49:15;;;;;;;4.13;1.73;;;;;;;4.87;100.00;99567.19;5051955;28;20526;-86
2023/11/11 01:51:41;;;;;;;4.47;1.10;;;;;;;4.72;100.00;99561.91;5051663;28;20086;-85
2023/11/11 01:54:07;;;;;;;5.72;1.42;;;;;;;4.79;100.00;99576.97;5051719;28;20548;-85
2023/11/11 01:56:32;;;;;;;3.38;1.48;;;;;;;4.79;100.00;99571.84;5051785;28;20028;-85
2023/11/11 01:58:58;;;;;;;4.30;1.25;;;;;;;4.75;100.00;99578.00;5051081;28;20029;-85
2023/11/11 02:01:23;;;;;;;5.22;1.67;;;;;;;4.86;100.00;99584.25;5051479;28;20037;-86
2023/11/11 02:03:49;;;;;;;4.40;1.50;;;;;;;4.83;100.00;99583.56;5051846;28;20056;-86
2023/11/11 02:06:16;;;;;;;5.20;1.45;;;;;;;4.74;100.00;99587.41;5051564;28;20044;-86
2023/11/11 02:08:42;;;;;;;6.32;1.40;;;;;;;4.74;100.00;99578.91;5051648;28;20029;-86
2023/11/11 02:11:08;;;;;;;6.78;1.52;;;;;;;4.73;100.00;99583.19;5051553;28;20029;-86
2023/11/11 02:13:35;;;;;;;6.30;1.88;;;;;;;4.69;100.00;99582.50;5050184;28;20498;-85
2023/11/11 02:16:05;;;;;;;2.53;1.10;;;;;;;4.70;100.00;99588.44;5051511;28;20388;-85
2023/11/11 02:18:31;;;;;;;5.05;1.25;;;;;;;4.61;100.00;99594.81;5051439;28;20035;-85
2023/11/11 02:20:56;;;;;;;8.13;1.63;;;;;;;4.69;100.00;99597.84;5051587;28;20036;-86
2023/11/11 02:23:27;;;;;;;5.22;1.60;;;;;;;4.76;100.00;99595.81;5051607;28;20382;-85
2023/11/11 02:25:53;;;;;;;5.93;1.80;;;;;;;4.75;100.00;99601.00;5051411;28;20099;-86
2023/11/11 02:28:19;;;;;;;7.45;1.70;;;;;;;5.06;100.00;99596.09;5050523;28;20444;-85
2023/11/11 02:30:47;;;;;;;13.00;1.40;;;;;;;5.03;100.00;99591.13;5051394;28;20033;-85
2023/11/11 02:33:12;;;;;;;7.80;1.60;;;;;;;5.09;100.00;99601.03;5051267;28;20378;-85
2023/11/11 02:35:38;;;;;;;5.78;1.80;;;;;;;4.95;100.00;99608.56;5051458;28;20029;-85
2023/11/11 02:38:04;;;;;;;8.07;1.30;;;;;;;4.91;100.00;99612.16;5051335;28;20502;-85
2023/11/11 02:40:30;;;;;;;8.63;1.70;;;;;;;4.98;100.00;99616.09;5051142;28;20449;-85
2023/11/11 02:42:55;;;;;;;11.95;1.70;;;;;;;5.03;100.00;99611.59;5048789;28;20025;-85
2023/11/11 02:45:21;;;;;;;8.15;2.67;;;;;;;5.00;100.00;99616.00;5050550;28;20109;-85
2023/11/11 02:47:47;;;;;;;6.45;1.20;;;;;;;4.91;100.00;99614.72;5051200;28;20472;-85
2023/11/11 02:50:12;;;;;;;12.23;1.83;;;;;;;5.02;100.00;99614.22;5051462;28;20031;-85
2023/11/11 02:52:39;;;;;;;8.95;1.33;;;;;;;4.99;100.00;99615.19;5051213;28;20111;-85
2023/11/11 02:55:05;;;;;;;6.07;1.15;;;;;;;5.05;100.00;99604.69;5051005;28;20032;-85
2023/11/11 02:57:30;;;;;;;8.23;1.35;;;;;;;5.10;100.00;99601.91;5050502;28;20029;-85
2023/11/11 02:59:55;;;;;;;4.82;1.38;;;;;;;5.15;100.00;99598.22;5050996;28;20029;-85
2023/11/11 03:02:22;;;;;;;6.95;1.60;;;;;;;5.25;100.00;99595.22;5050089;28;20031;-85
2023/11/11 03:04:49;;;;;;;10.13;1.77;;;;;;;5.28;100.00;99593.31;5050928;28;20029;-85
2023/11/11 03:07:15;;;;;;;6.68;1.63;;;;;;;5.23;100.00;99591.91;5050675;28;20414;-85
2023/11/11 03:09:40;;;;;;;5.30;1.27;;;;;;;5.24;100.00;99601.22;5051063;28;20052;-85
2023/11/11 03:12:07;;;;;;;5.32;1.55;;;;;;;5.18;100.00;99598.97;5051028;28;20025;-85
2023/11/11 03:14:32;;;;;;;8.05;1.55;;;;;;;5.28;100.00;99595.06;5050996;28;20021;-85
2023/11/11 03:16:57;;;;;;;6.68;2.25;;;;;;;5.38;100.00;99596.25;5050954;28;20471;-85
2023/11/11 03:19:24;;;;;;;6.43;1.50;;;;;;;5.43;100.00;99594.28;5051071;28;20025;-85
2023/11/11 03:21:49;;;;;;;9.25;1.73;;;;;;;5.32;100.00;99596.56;5049898;28;20056;-85
2023/11/11 03:24:15;;;;;;;5.95;1.90;;;;;;;5.36;100.00;99598.91;5052295;28;20479;-85
2023/11/11 03:26:40;;;;;;;10.95;1.80;;;;;;;5.48;100.00;99589.75;5054602;28;20112;-85
2023/11/11 03:29:06;;;;;;;10.13;2.05;;;;;;;5.46;100.00;99591.59;5054455;28;20025;-85
2023/11/11 03:31:31;;;;;;;5.47;1.70;;;;;;;5.64;100.00;99586.44;5053527;28;20036;-85
2023/11/11 03:33:57;;;;;;;6.50;1.60;;;;;;;5.53;100.00;99585.22;5054193;28;20021;-85
2023/11/11 03:36:22;;;;;;;5.50;1.55;;;;;;;5.40;100.00;99589.31;5054452;28;20529;-85
2023/11/11 03:38:48;;;;;;;6.78;1.73;;;;;;;5.54;100.00;99597.16;5054033;28;20433;-85
2023/11/11 03:41:13;;;;;;;8.95;1.55;;;;;;;5.68;100.00;99600.72;5054158;28;20037;-85
2023/11/11 03:43:38;;;;;;;8.55;1.75;;;;;;;5.56;100.00;99600.47;5054208;28;20112;-85
2023/11/11 03:46:05;;;;;;;8.93;2.15;;;;;;;5.54;100.00;99597.16;5054139;28;20032;-85
2023/11/11 03:48:30;;;;;;;16.60;4.40;;;;;;;5.50;100.00;99605.88;5051838;28;20074;-85
2023/11/11 03:50:56;;;;;;;8.30;1.63;;;;;;;5.46;100.00;99608.66;5049459;28;20839;-85
2023/11/11 03:53:22;;;;;;;12.23;2.75;;;;;;;5.47;100.00;99611.16;5053779;28;20116;-85
2023/11/11 03:55:48;;;;;;;3.67;1.20;;;;;;;5.48;100.00;99596.63;5054005;28;20391;-86
2023/11/11 03:58:14;;;;;;;5.28;2.00;;;;;;;5.40;100.00;99612.34;5054001;28;20025;-86
2023/11/11 04:00:39;;;;;;;3.72;1.73;;;;;;;5.40;100.00;99614.09;5052677;28;20135;-85
2023/11/11 04:03:05;;;;;;;5.63;1.77;;;;;;;5.38;100.00;99610.78;5053662;28;20021;-86
2023/11/11 04:05:31;;;;;;;8.82;1.95;;;;;;;5.46;100.00;99614.63;5053802;28;20455;-88
2023/11/11 04:07:57;;;;;;;9.48;1.83;;;;;;;5.41;100.00;99615.72;5053831;28;20032;-87
2023/11/11 04:10:23;;;;;;;9.10;1.77;;;;;;;5.35;100.00;99620.25;5052711;28;20037;-86
2023/11/11 04:12:48;;;;;;;13.95;1.90;;;;;;;5.40;100.00;99621.78;5050767;28;20499;-86
2023/11/11 04:15:14;;;;;;;4.97;1.17;;;;;;;5.30;100.00;99629.06;5050725;28;20426;-87
2023/11/11 04:17:41;;;;;;;9.18;2.17;;;;;;;5.26;100.00;99628.38;5035688;28;20029;-87
2023/11/11 04:20:10;;;;;;;12.77;1.80;;;;;;;5.22;100.00;99641.38;5053333;28;20017;-87
2023/11/11 04:22:35;;;;;;;8.10;1.77;;;;;;;5.13;100.00;99648.59;5053264;28;20032;-87
2023/11/11 04:25:05;;;;;;;2.78;1.10;;;;;;;5.09;100.00;99641.97;5053327;28;20380;-87
2023/11/11 04:27:31;;;;;;;5.43;1.33;;;;;;;5.05;100.00;99637.09;5051171;28;20114;-87
2023/11/11 04:29:57;;;;;;;6.70;1.73;;;;;;;5.23;100.00;99643.06;5053001;28;20080;-87
2023/11/11 04:32:23;;;;;;;7.18;1.63;;;;;;;5.23;100.00;99637.94;5052597;28;20032;-87
2023/11/11 04:34:50;;;;;;;5.63;1.50;;;;;;;5.11;100.00;99641.91;5052947;28;20407;-87
2023/11/11 04:37:15;;;;;;;6.70;1.63;;;;;;;5.05;100.00;99635.38;5053230;28;20487;-87
2023/11/11 04:39:44;;;;;;;13.88;1.92;;;;;;;5.08;100.00;99640.31;5048319;28;20027;-87
2023/11/11 04:42:10;;;;;;;4.65;1.15;;;;;;;5.17;100.00;99643.34;5041169;28;20032;-85
2023/11/11 04:44:36;;;;;;;6.03;2.45;;;;;;;5.14;100.00;99639.19;5048846;28;20025;-85
2023/11/11 04:47:01;;;;;;;13.57;3.17;;;;;;;5.08;100.00;99635.22;5048301;28;20079;-86
2023/11/11 04:49:27;;;;;;;10.60;1.58;;;;;;;5.13;100.00;99642.66;5033170;28;20472;-86
2023/11/11 04:51:52;;;;;;;10.52;1.83;;;;;;;5.15;100.00;99641.69;5043222;28;20075;-87
2023/11/11 04:54:17;;;;;;;10.10;2.85;;;;;;;5.06;100.00;99637.00;5052779;28;20032;-86
2023/11/11 04:56:43;;;;;;;5.38;1.40;;;;;;;5.05;100.00;99644.78;5052848;28;20036;-87
2023/11/11 04:59:13;;;;;;;5.05;1.50;;;;;;;5.02;100.00;99643.16;5051721;28;20510;-86
2023/11/11 05:01:39;;;;;;;7.13;1.15;;;;;;;5.08;100.00;99650.56;5050890;28;20075;-85
2023/11/11 05:04:04;;;;;;;5.78;1.30;;;;;;;4.92;100.00;99659.84;5052394;28;20025;-86
2023/11/11 05:06:29;;;;;;;7.32;1.80;;;;;;;4.87;100.00;99661.78;5052705;28;20017;-85
2023/11/11 05:08:55;;;;;;;3.00;1.17;;;;;;;4.77;100.00;99661.38;5051169;28;20033;-86
2023/11/11 05:11:21;;;;;;;5.22;1.83;;;;;;;4.71;100.00;99664.22;5049136;28;20139;-85
2023/11/11 05:13:46;;;;;;;5.32;1.38;;;;;;;4.64;100.00;99665.41;5033091;28;20056;-86
2023/11/11 05:16:27;;;;;;;6.07;1.45;;;;;;;4.60;100.00;99674.94;5059050;28;20056;-85
2023/11/11 05:18:53;;;;;;;9.77;2.30;;;;;;;4.62;100.00;99668.03;5052166;28;20025;-85
2023/11/11 05:21:19;;;;;;;12.52;1.63;;;;;;;4.60;100.00;99677.47;5052435;28;20032;-86
2023/11/11 05:23:44;;;;;;;12.52;1.65;;;;;;;4.57;100.00;99674.25;5043508;28;20549;-86
2023/11/11 05:26:10;;;;;;;7.43;1.95;;;;;;;4.52;100.00;99682.13;5048235;28;20029;-85
2023/11/11 05:28:35;;;;;;;8.00;1.50;;;;;;;4.44;100.00;99684.19;5047640;28;20013;-86
2023/11/11 05:31:00;;;;;;;5.93;1.13;;;;;;;4.34;100.00;99688.88;5047287;28;20033;-86
2023/11/11 05:33:26;;;;;;;6.78;1.38;;;;;;;4.33;100.00;99684.66;5039207;28;20021;-86
2023/11/11 05:35:51;;;;;;;7.85;2.00;;;;;;;4.33;100.00;99686.38;5044212;28;20029;-85
2023/11/11 05:38:16;;;;;;;8.77;1.60;;;;;;;4.27;100.00;99677.28;5051804;28;20017;-85
2023/11/11 05:40:42;;;;;;;5.22;1.58;;;;;;;4.31;100.00;99675.41;5051763;28;20029;-86
2023/11/11 05:43:08;;;;;;;7.07;2.00;;;;;;;4.29;100.00;99675.44;5051861;28;20028;-86
2023/11/11 05:45:34;;;;;;;8.43;2.10;;;;;;;4.49;100.00;99674.59;5049790;28;20017;-86
2023/11/11 05:47:59;;;;;;;7.45;2.08;;;;;;;4.56;100.00;99678.53;5051066;28;20028;-86
2023/11/11 05:50:25;;;;;;;14.52;1.90;;;;;;;4.68;100.00;99683.09;5051926;28;20118;-86
2023/11/11 05:52:50;;;;;;;10.07;2.00;;;;;;;4.62;100.00;99672.31;5051893;28;20025;-86
2023/11/11 05:55:16;;;;;;;7.38;1.90;;;;;;;4.62;100.00;99668.03;5051970;28;20106;-86
2023/11/11 05:57:41;;;;;;;13.25;2.17;;;;;;;4.70;100.00;99686.38;5051838;28;20045;-86
2023/11/11 06:00:11;;;;;;;7.28;1.95;;;;;;;4.71;100.00;99688.06;5033095;28;20036;-85
2023/11/11 06:02:37;;;;;;;7.15;1.70;;;;;;;4.62;100.00;99693.59;5051726;28;20025;-85
2023/11/11 06:05:02;;;;;;;9.95;2.00;;;;;;;4.67;100.00;99691.66;5051758;28;20021;-87
2023/11/11 06:07:28;;;;;;;6.43;1.67;;;;;;;4.66;100.00;99687.44;5051818;28;20417;-87
2023/11/11 06:09:53;;;;;;;7.07;1.92;;;;;;;4.59;100.00;99685.25;5051389;28;20028;-85
2023/11/11 06:12:19;;;;;;;5.47;1.65;;;;;;;4.51;100.00;99683.00;5050501;28;20013;-86
2023/11/11 06:14:44;;;;;;;7.13;1.67;;;;;;;4.47;100.00;99686.59;5050534;28;20376;-86
2023/11/11 06:17:11;;;;;;;5.43;1.17;;;;;;;4.38;100.00;99703.16;5051606;28;20029;-85
2023/11/11 06:19:36;;;;;;;3.15;1.42;;;;;;;4.33;100.00;99704.25;5051787;28;20036;-85
2023/11/11 06:22:04;;;;;;;6.28;1.23;;;;;;;4.26;100.00;99708.81;5051545;28;20025;-85
2023/11/11 06:24:33;;;;;;;5.03;1.60;;;;;;;4.20;100.00;99715.00;5051510;28;20025;-85
2023/11/11 06:26:58;;;;;;;5.60;1.60;;;;;;;4.16;100.00;99726.25;5051487;28;20025;-85
2023/11/11 06:29:24;;;;;;;4.68;1.48;;;;;;;4.12;100.00;99724.75;5030162;28;20502;-85
2023/11/11 06:31:52;;;;;;;6.38;2.13;;;;;;;4.15;100.00;99719.50;5070963;28;20530;-85
2023/11/11 06:34:19;;;;;;;7.32;2.13;;;;;;;4.17;100.00;99730.47;5065885;28;20032;-86
2023/11/11 06:36:44;;;;;;;4.25;1.27;;;;;;;4.17;100.00;99734.72;5051309;28;20022;-85
2023/11/11 06:39:09;;;;;;;10.13;1.70;;;;;;;4.33;100.00;99745.97;5051199;28;20070;-85
2023/11/11 06:41:35;;;;;;;8.70;1.65;;;;;;;4.27;100.00;99744.50;5050851;28;20060;-85
2023/11/11 06:44:00;;;;;;;8.57;1.50;;;;;;;4.37;100.00;99739.00;5050320;28;20029;-85
2023/11/11 06:46:25;;;;;;;8.30;1.42;;;;;;;4.44;100.00;99745.53;5051308;28;20056;-86
2023/11/11 06:48:51;;;;;;;6.65;1.80;;;;;;;4.42;100.00;99754.97;5051342;28;20078;-86
2023/11/11 06:51:17;;;;;;;3.53;1.40;;;;;;;4.37;100.00;99751.78;5051404;28;20052;-86
2023/11/11 06:53:42;;;;;;;7.50;1.58;;;;;;;4.35;100.00;99756.13;5051585;28;20158;-85
2023/11/11 06:56:07;;;;;;;2.15;1.08;;;;;;;4.32;100.00;99757.09;5050980;28;20072;-86
2023/11/11 06:58:33;;;;;;;6.25;1.45;;;;;;;4.28;100.00;99755.56;5050576;28;20082;-85
2023/11/11 07:01:01;;;;;;;8.88;1.60;;;;;;;4.35;100.00;99767.16;5055046;28;20144;-85
2023/11/11 07:03:28;;;;;;;9.40;1.42;;;;;;;4.46;100.00;99770.09;5054994;28;20028;-86
2023/11/11 07:05:56;;;;;;;6.07;1.55;;;;;;;4.34;100.00;99764.66;5055015;28;20113;-85
2023/11/11 07:08:21;;;;;;;8.07;1.60;;;;;;;4.26;100.00;99778.59;5054938;28;20025;-85
2023/11/11 07:10:46;;;;;;;6.82;1.67;;;;;;;4.25;100.00;99781.22;5054576;28;20040;-85
2023/11/11 07:13:12;;;;;;;14.85;2.72;;;;;;;4.28;100.00;99781.91;5053676;28;20029;-85
2023/11/11 07:15:37;;;;;;;5.60;1.52;;;;;;;4.35;100.00;99791.91;5055010;28;20021;-85
2023/11/11 07:18:07;;;;;;;17.20;2.50;;;;;;;4.41;100.00;99786.50;5054417;28;20086;-86
2023/11/11 07:20:32;;;;;;;6.75;1.15;;;;;;;4.61;100.00;99783.09;5054723;28;20044;-85
2023/11/11 07:22:59;;;;;;;4.95;1.58;;;;;;;4.51;100.00;99785.22;5054260;28;20368;-85
2023/11/11 07:25:26;;;;;;;6.55;1.40;;;;;;;4.54;100.00;99781.72;5054380;28;20225;-85
2023/11/11 07:27:52;;;;;;;4.63;1.23;;;;;;;4.63;100.00;99781.31;5053515;28;20033;-85
2023/11/11 07:30:17;;;;;;;4.82;1.38;;;;;;;4.65;100.00;99784.63;5054550;28;20119;-85
2023/11/11 07:32:44;;;;;;;7.13;1.30;;;;;;;4.54;100.00;99787.66;5054541;28;20033;-85
2023/11/11 07:35:11;;;;;;;7.50;1.55;;;;;;;4.55;100.00;99783.38;5054527;28;20029;-85
2023/11/11 07:37:37;;;;;;;5.53;1.50;;;;;;;4.68;100.00;99790.47;5036161;28;20384;-85
2023/11/11 07:40:04;;;;;;;8.48;2.03;;;;;;;4.69;100.00;99791.28;5036166;28;20456;-85
2023/11/11 07:42:30;;;;;;;5.05;1.73;;;;;;;4.74;100.00;99798.75;5053003;28;20025;-85
2023/11/11 07:44:55;;;;;;;9.52;1.92;;;;;;;4.76;100.00;99794.41;5054104;28;20029;-85
2023/11/11 07:47:21;;;;;;;6.57;1.95;;;;;;;4.78;100.00;99785.78;5054492;28;20036;-85
2023/11/11 07:49:47;;;;;;;10.32;2.45;;;;;;;4.76;100.00;99794.41;5036224;28;20395;-85
2023/11/11 07:52:12;;;;;;;6.88;3.10;;;;;;;4.70;100.00;99803.97;5053719;28;20044;-85
2023/11/11 07:54:38;;;;;;;18.80;10.63;;;;;;;4.66;100.00;99807.59;5054119;28;20079;-85
2023/11/11 07:57:06;;;;;;;13.95;7.93;;;;;;;4.70;100.00;99811.63;5052748;28;20112;-85
2023/11/11 07:59:32;;;;;;;17.55;8.15;;;;;;;4.69;100.00;99812.56;5053892;28;20386;-85
2023/11/11 08:01:58;;;;;;;12.43;3.50;;;;;;;4.63;100.00;99817.94;5053785;28;20025;-86
2023/11/11 08:04:24;;;;;;;9.23;3.42;;;;;;;4.54;100.00;99820.06;5053916;28;20028;-85
2023/11/11 08:06:50;;;;;;;7.20;2.83;;;;;;;4.50;100.00;99814.22;5053146;28;20033;-85
2023/11/11 08:09:16;;;;;;;12.40;3.95;;;;;;;4.52;100.00;99825.22;5053380;28;20044;-85
2023/11/11 08:11:43;;;;;;;11.23;2.92;;;;;;;4.54;100.00;99828.56;5052513;28;20036;-86
2023/11/11 08:14:08;;;;;;;11.23;2.97;;;;;;;4.55;100.00;99835.31;5053733;28;20063;-85
2023/11/11 08:16:34;;;;;;;6.88;2.40;;;;;;;4.55;100.00;99835.31;5053690;28;20468;-85
2023/11/11 08:18:59;;;;;;;6.65;2.03;;;;;;;4.56;100.00;99831.03;5053545;28;20127;-85
2023/11/11 08:21:29;;;;;;;10.40;5.63;;;;;;;4.52;100.00;99830.34;5052701;28;20069;-86
2023/11/11 08:23:55;;;;;;;16.38;8.13;;;;;;;4.56;100.00;99833.56;5053349;28;20028;-85
2023/11/11 08:26:22;;;;;;;15.77;8.48;;;;;;;4.57;100.00;99838.63;5052371;28;20383;-85
2023/11/11 08:28:47;;;;;;;11.50;6.22;;;;;;;4.56;100.00;99837.00;5053159;28;20108;-85
2023/11/11 08:31:13;;;;;;;7.90;4.30;;;;;;;4.60;100.00;99833.38;5053437;28;20108;-85
2023/11/11 08:33:38;;;;;;;10.07;5.45;;;;;;;4.59;100.00;99826.63;5052906;28;20039;-85
2023/11/11 08:36:04;;;;;;;11.80;4.40;;;;;;;4.64;100.00;99824.69;5035300;28;20024;-85
2023/11/11 08:38:29;;;;;;;9.65;4.20;;;;;;;4.65;100.00;99828.91;5053302;28;20021;-85
2023/11/11 08:40:54;;;;;;;9.00;3.92;;;;;;;4.70;100.00;99821.03;5051938;28;20139;-85
2023/11/11 08:43:20;;;;;;;8.75;3.85;;;;;;;4.82;100.00;99820.50;5051940;28;20067;-85
2023/11/11 08:45:46;;;;;;;6.40;2.47;;;;;;;4.88;100.00;99824.56;5035059;28;20087;-85
2023/11/11 08:48:13;;;;;;;7.63;2.38;;;;;;;4.98;100.00;99812.19;5052393;28;20072;-86
2023/11/11 08:50:39;;;;;;;8.30;3.13;;;;;;;5.14;100.00;99814.00;5052783;28;20483;-85
2023/11/11 08:53:05;;;;;;;9.30;2.88;;;;;;;5.14;100.00;99808.03;5053213;28;20071;-85
2023/11/11 08:55:30;;;;;;;9.05;2.45;;;;;;;5.47;100.00;99821.03;5052313;28;20032;-85
2023/11/11 08:57:56;;;;;;;9.52;2.30;;;;;;;5.60;100.00;99815.31;5051818;28;20028;-85
2023/11/11 09:00:22;;;;;;;7.68;1.48;;;;;;;5.80;100.00;99807.50;5052719;28;20052;-85
2023/11/11 09:02:49;;;;;;;5.82;1.42;;;;;;;5.94;100.00;99799.22;5052393;28;20029;-85
2023/11/11 09:05:14;;;;;;;7.32;1.52;;;;;;;6.10;100.00;99809.56;5052984;28;20059;-85
2023/11/11 09:07:40;;;;;;;6.75;1.58;;;;;;;6.28;100.00;99803.50;5052646;28;20060;-85
2023/11/11 09:10:05;;;;;;;2.67;1.17;;;;;;;6.33;100.00;99798.97;5052492;28;20075;-85
2023/11/11 09:12:32;;;;;;;4.65;1.48;;;;;;;6.47;100.00;99803.41;5033787;28;20032;-86
2023/11/11 09:14:57;;;;;;;8.63;1.35;;;;;;;6.48;100.00;99805.06;5052318;28;20111;-85
2023/11/11 09:17:24;;;;;;;3.05;1.02;;;;;;;6.56;100.00;99796.97;5051824;28;20176;-86
2023/11/11 09:19:50;;;;;;;5.78;1.50;;;;;;;6.59;100.00;99792.53;5034518;28;20024;-86
2023/11/11 09:22:15;;;;;;;3.53;1.20;;;;;;;6.62;100.00;99797.50;5051554;28;20033;-86
2023/11/11 09:24:41;;;;;;;5.07;0.95;;;;;;;6.72;100.00;99802.97;5051670;28;20395;-86
2023/11/11 09:27:07;;;;;;;4.50;1.25;;;;;;;6.81;100.00;99805.06;5051352;28;20072;-86
2023/11/11 09:29:32;;;;;;;4.65;1.33;;;;;;;6.84;100.00;99797.22;5052155;28;20438;-86
2023/11/11 09:31:58;;;;;;;5.72;2.47;;;;;;;6.82;100.00;99804.16;5051785;28;20107;-86
2023/11/11 09:34:23;;;;;;;9.25;1.52;;;;;;;6.93;100.00;99806.19;5052171;28;20025;-86
2023/11/11 09:36:49;;;;;;;13.18;2.97;;;;;;;6.97;100.00;99806.84;5052144;28;20025;-86
2023/11/11 09:39:15;;;;;;;28.45;8.77;;;;;;;7.10;100.00;99810.41;5051732;28;20026;-86
2023/11/11 09:41:41;;;;;;;8.38;2.53;;;;;;;7.21;100.00;99810.66;5050874;28;20041;-86
2023/11/11 09:44:07;;;;;;;5.28;1.65;;;;;;;7.54;100.00;99806.38;5051920;28;20032;-86
2023/11/11 09:46:51;;;;;;;3.05;0.88;;;;;;;7.60;100.00;99811.97;5051557;28;20021;-86
2023/11/11 09:49:18;;;;;;;3.20;1.10;;;;;;;7.82;100.00;99813.34;5050830;28;20021;-86
2023/11/11 09:51:44;;;;;;;3.55;0.80;;;;;;;8.50;100.00;99818.06;5050447;28;20533;-87
2023/11/11 09:54:10;;;;;;;3.22;0.85;;;;;;;8.82;100.00;99823.84;5050248;28;20386;-88
2023/11/11 09:56:36;;;;;;;3.90;1.55;;;;;;;8.90;100.00;99826.81;5051737;28;20275;-91
2023/11/11 09:59:05;;;;;;;2.67;0.88;;;;;;;9.14;100.00;99826.22;5050459;28;20036;-91
2023/11/11 10:01:32;;;;;;;9.35;1.70;;;;;;;9.39;100.00;99818.66;5051104;28;20489;-90
2023/11/11 10:03:57;;;;;;;3.90;1.40;;;;;;;9.58;100.00;99830.38;5051613;28;20033;-88
2023/11/11 10:06:24;;;;;;;5.55;1.63;;;;;;;9.87;100.00;99843.97;5049889;28;20530;-87
2023/11/11 10:08:51;;;;;;;4.88;1.60;;;;;;;10.16;100.00;99844.69;5050851;28;20029;-88
2023/11/11 10:11:16;;;;;;;8.43;1.73;;;;;;;10.26;100.00;99845.72;5050787;28;20499;-87
2023/11/11 10:13:41;;;;;;;7.55;2.75;;;;;;;10.18;100.00;99847.97;5049503;28;20035;-90
2023/11/11 10:16:14;;;;;;;6.43;1.80;;;;;;;10.99;100.00;99859.81;5050057;28;20025;-88
2023/11/11 10:18:40;;;;;;;6.88;2.00;;;;;;;11.59;100.00;99860.84;5048507;28;20502;-88
2023/11/11 10:21:10;;;;;;;6.70;1.85;;;;;;;11.27;100.00;99857.94;5046571;28;20029;-89
2023/11/11 10:23:36;;;;;;;9.77;2.15;;;;;;;11.27;100.00;99861.34;5045596;28;20092;-89
2023/11/11 10:26:03;;;;;;;4.40;1.90;;;;;;;11.46;100.00;99854.88;5033392;28;20391;-89
2023/11/11 10:28:30;;;;;;;7.70;2.47;;;;;;;11.82;100.00;99859.19;5059309;28;20013;-90
2023/11/11 10:31:05;;;;;;;5.13;1.88;;;;;;;11.98;100.00;99853.78;5051304;28;20462;-88
2023/11/11 10:33:30;;;;;;;8.07;1.90;;;;;;;12.30;99.42;99854.00;5055358;28;20017;-90
2023/11/11 10:35:55;;;;;;;4.63;1.10;;;;;;;12.90;97.39;99852.09;5054214;28;20387;-88
2023/11/11 10:38:21;;;;;;;6.57;2.05;;;;;;;13.21;92.56;99858.31;5053839;28;20375;-88
2023/11/11 10:40:46;;;;;;;3.10;1.50;;;;;;;13.44;88.45;99860.91;5054647;28;20487;-88
2023/11/11 10:43:12;;;;;;;2.85;1.77;;;;;;;13.59;86.41;99869.25;5055071;28;20549;-87
2023/11/11 10:45:37;;;;;;;5.47;1.50;;;;;;;13.73;85.57;99869.00;5053979;28;20451;-90
2023/11/11 10:48:03;;;;;;;6.25;1.70;;;;;;;14.44;81.62;99866.66;5054845;28;20033;-91
2023/11/11 10:50:30;;;;;;;3.90;1.83;;;;;;;14.78;79.48;99874.28;5023877;28;20116;-88
2023/11/11 10:52:56;;;;;;;5.35;1.65;;;;;;;14.97;78.07;99874.38;5046732;28;20021;-88
2023/11/11 10:55:26;;;;;;;2.33;1.25;;;;;;;15.05;76.38;99870.31;5051662;28;20040;-88
2023/11/11 10:57:52;;;;;;;6.47;1.80;;;;;;;15.35;75.86;99872.84;5053554;28;20025;-87
2023/11/11 11:00:21;;;;;;;6.30;2.05;;;;;;;15.32;75.25;99865.31;5052979;28;20434;-88
2023/11/11 11:02:49;;;;;;;5.63;1.70;;;;;;;15.15;76.82;99861.56;5051881;28;20021;-85
2023/11/11 11:05:26;;;;;;;6.90;1.63;;;;;;;14.80;75.52;99858.53;5052232;28;20025;-87
2023/11/11 11:08:02;;;;;;;4.60;1.13;;;;;;;14.82;76.42;99859.25;5055537;28;20048;-86
2023/11/11 11:10:39;;;;;;;4.40;1.50;;;;;;;14.79;75.14;99859.50;5053898;28;20104;-86
2023/11/11 11:13:10;;;;;;;5.07;1.67;;;;;;;14.59;76.32;99853.41;5053743;28;20032;-85
2023/11/11 11:15:44;;;;;;;6.85;1.77;;;;;;;14.65;76.29;99847.69;5054685;28;20285;-86
2023/11/11 11:18:10;;;;;;;2.95;1.30;;;;;;;14.91;77.11;99843.69;5054516;28;20029;-86
2023/11/11 11:20:37;;;;;;;5.57;1.40;;;;;;;14.82;75.33;99838.47;5053624;28;20033;-86
2023/11/11 11:23:07;;;;;;;5.68;1.50;;;;;;;14.60;75.94;99832.47;5054066;28;20594;-85
2023/11/11 11:25:36;;;;;;;5.50;1.40;;;;;;;14.77;75.72;99828.47;5034941;28;20036;-85
2023/11/11 11:28:14;;;;;;;2.92;1.17;;;;;;;14.66;77.47;99823.38;5052250;28;20028;-86